createdAt,value
2018-05-11T00:01:09.648Z,5.70
2018-05-11T00:03:37.138Z,5.33
2018-05-11T00:06:05.415Z,5.70
2018-05-11T00:08:33.674Z,6.17
2018-05-11T00:11:01.942Z,6.63
2018-05-11T00:13:29.508Z,6.00
2018-05-11T00:15:57.794Z,6.00
2018-05-11T00:18:26.162Z,6.30
2018-05-11T00:20:54.434Z,6.87
2018-05-11T00:23:22.131Z,6.80
2018-05-11T00:25:49.649Z,6.53
2018-05-11T00:28:17.125Z,6.50
2018-05-11T00:30:45.400Z,7.43
2018-05-11T00:33:13.678Z,7.17
2018-05-11T00:35:41.954Z,6.60
2018-05-11T00:38:19.401Z,6.17
2018-05-11T00:40:46.880Z,6.77
2018-05-11T00:43:14.427Z,7.83
2018-05-11T00:45:41.940Z,9.20
2018-05-11T00:48:09.463Z,8.80
2018-05-11T00:50:37.733Z,6.60
2018-05-11T00:53:07.499Z,6.80
2018-05-11T00:55:45.757Z,7.12
2018-05-11T00:58:13.273Z,7.33
2018-05-11T01:00:40.783Z,5.80
2018-05-11T01:03:09.048Z,6.70
2018-05-11T01:05:37.334Z,7.00
2018-05-11T01:08:05.654Z,6.23
2018-05-11T01:10:33.150Z,6.47
2018-05-11T01:13:00.828Z,6.20
2018-05-11T01:15:29.220Z,7.00
2018-05-11T01:17:56.741Z,8.30
2018-05-11T01:20:24.456Z,6.57
2018-05-11T01:22:51.980Z,5.87
2018-05-11T01:25:20.299Z,7.20
2018-05-11T01:27:47.810Z,7.07
2018-05-11T01:30:15.391Z,5.53
2018-05-11T01:32:43.749Z,6.10
2018-05-11T01:35:12.107Z,7.32
2018-05-11T01:37:39.563Z,6.20
2018-05-11T01:40:07.093Z,6.07
2018-05-11T01:42:34.717Z,6.70
2018-05-11T01:45:02.995Z,7.10
2018-05-11T01:47:30.555Z,7.57
2018-05-11T01:49:58.067Z,6.00
2018-05-11T01:52:25.632Z,5.87
2018-05-11T01:54:53.128Z,6.68
2018-05-11T01:57:20.640Z,5.72
2018-05-11T01:59:48.150Z,6.40
2018-05-11T02:02:15.658Z,5.72
2018-05-11T02:04:43.172Z,5.87
2018-05-11T02:07:10.729Z,8.88
2018-05-11T02:09:38.236Z,6.53
2018-05-11T02:12:05.955Z,8.80
2018-05-11T02:14:33.565Z,6.50
2018-05-11T02:17:01.157Z,7.00
2018-05-11T02:19:29.432Z,6.90
2018-05-11T02:21:57.747Z,6.35
2018-05-11T02:24:25.329Z,6.80
2018-05-11T02:26:52.824Z,6.68
2018-05-11T02:29:21.224Z,5.70
2018-05-11T02:31:49.600Z,6.60
2018-05-11T02:34:17.245Z,8.07
2018-05-11T02:36:45.504Z,9.52
2018-05-11T02:39:13.008Z,9.35
2018-05-11T02:41:40.500Z,10.32
2018-05-11T02:44:08.013Z,11.48
2018-05-11T02:46:35.538Z,10.60
2018-05-11T02:49:03.060Z,11.45
2018-05-11T02:51:30.567Z,11.68
2018-05-11T02:53:59.000Z,12.63
2018-05-11T02:56:26.503Z,13.80
2018-05-11T02:58:54.924Z,11.40
2018-05-11T03:01:22.433Z,13.05
2018-05-11T03:03:49.941Z,12.10
2018-05-11T03:06:17.472Z,12.63
2018-05-11T03:08:44.974Z,14.57
2018-05-11T03:11:13.100Z,14.68
2018-05-11T03:13:41.480Z,14.00
2018-05-11T03:16:09.048Z,14.80
2018-05-11T03:18:37.419Z,14.80
2018-05-11T03:21:05.696Z,16.45
2018-05-11T03:23:33.202Z,16.42
2018-05-11T03:26:00.724Z,16.60
2018-05-11T03:28:28.229Z,17.02
2018-05-11T03:30:55.758Z,16.20
2018-05-11T03:33:23.256Z,14.82
2018-05-11T03:35:50.770Z,15.15
2018-05-11T03:38:18.254Z,15.20
2018-05-11T03:40:46.699Z,14.80
2018-05-11T03:43:14.212Z,14.82
2018-05-11T03:45:41.889Z,17.37
2018-05-11T03:48:10.153Z,16.08
2018-05-11T03:50:37.693Z,16.20
2018-05-11T03:53:05.199Z,13.85
2018-05-11T03:55:32.703Z,12.90
2018-05-11T03:58:00.207Z,9.98
2018-05-11T04:00:28.469Z,8.10
2018-05-11T04:03:08.629Z,8.43
2018-05-11T04:05:48.729Z,7.95
2018-05-11T04:08:28.183Z,13.45
2018-05-11T04:10:55.681Z,14.15
2018-05-11T04:13:23.973Z,9.27
2018-05-11T04:15:51.526Z,8.35
2018-05-11T04:18:19.037Z,8.10
2018-05-11T04:20:46.551Z,9.25
2018-05-11T04:23:14.839Z,18.40
2018-05-11T04:25:42.346Z,11.95
2018-05-11T04:28:09.873Z,11.20
2018-05-11T04:30:37.461Z,10.93
2018-05-11T04:33:04.997Z,14.38
2018-05-11T04:35:32.509Z,11.50
2018-05-11T04:38:00.020Z,9.10
2018-05-11T04:40:27.583Z,9.98
2018-05-11T04:42:55.109Z,9.18
2018-05-11T04:45:22.839Z,8.48
2018-05-11T04:47:50.279Z,8.15
2018-05-11T04:50:18.681Z,10.13
2018-05-11T04:52:46.933Z,13.07
2018-05-11T04:55:15.220Z,8.57
2018-05-11T04:57:43.531Z,9.00
2018-05-11T05:00:11.111Z,8.75
2018-05-11T05:02:38.605Z,9.70
2018-05-11T05:05:06.901Z,10.40
2018-05-11T05:07:34.387Z,10.38
2018-05-11T05:10:01.949Z,9.43
2018-05-11T05:12:29.825Z,9.75
2018-05-11T05:14:57.249Z,11.30
2018-05-11T05:17:24.761Z,11.63
2018-05-11T05:19:52.290Z,10.68
2018-05-11T05:22:19.833Z,11.85
2018-05-11T05:24:47.349Z,10.88
2018-05-11T05:27:14.883Z,10.85
2018-05-11T05:29:42.387Z,11.75
2018-05-11T05:32:09.915Z,11.43
2018-05-11T05:34:37.407Z,12.87
2018-05-11T05:37:04.949Z,11.03
2018-05-11T05:39:33.323Z,11.23
2018-05-11T05:42:01.609Z,12.00
2018-05-11T05:44:29.899Z,13.53
2018-05-11T05:46:57.417Z,12.00
2018-05-11T05:49:25.053Z,12.53
2018-05-11T05:51:52.562Z,12.23
2018-05-11T05:54:20.947Z,14.60
2018-05-11T05:56:49.228Z,12.67
2018-05-11T05:59:16.743Z,12.27
2018-05-11T06:01:44.253Z,14.87
2018-05-11T06:04:11.781Z,13.23
2018-05-11T06:06:40.071Z,16.10
2018-05-11T06:09:07.636Z,15.13
2018-05-11T06:11:35.166Z,16.73
2018-05-11T06:14:03.860Z,16.07
2018-05-11T06:16:32.124Z,15.40
2018-05-11T06:18:59.686Z,15.60
2018-05-11T06:21:27.168Z,15.70
2018-05-11T06:23:54.685Z,16.20
2018-05-11T06:26:22.240Z,16.60
2018-05-11T06:28:49.742Z,16.17
2018-05-11T06:31:17.299Z,16.23
2018-05-11T06:33:44.835Z,16.17
2018-05-11T06:36:12.408Z,17.30
2018-05-11T06:38:40.784Z,16.70
2018-05-11T06:41:09.056Z,15.10
2018-05-11T06:43:37.279Z,16.20
2018-05-11T06:46:04.845Z,14.37
2018-05-11T06:48:33.073Z,11.27
2018-05-11T06:51:01.380Z,11.27
2018-05-11T06:53:28.893Z,12.60
2018-05-11T06:55:57.307Z,12.23
2018-05-11T06:58:25.541Z,12.63
2018-05-11T07:00:53.818Z,12.70
2018-05-11T07:03:22.096Z,12.27
2018-05-11T07:05:49.611Z,11.97
2018-05-11T07:08:17.147Z,11.93
2018-05-11T07:10:44.671Z,12.67
2018-05-11T07:13:12.927Z,12.40
2018-05-11T07:15:40.432Z,14.40
2018-05-11T07:18:07.935Z,13.13
2018-05-11T07:20:35.498Z,12.50
2018-05-11T07:23:03.090Z,12.40
2018-05-11T07:25:31.376Z,13.47
2018-05-11T07:27:58.933Z,11.43
2018-05-11T07:30:26.488Z,12.63
2018-05-11T07:32:54.801Z,13.17
2018-05-11T07:35:22.300Z,13.10
2018-05-11T07:37:49.802Z,12.50
2018-05-11T07:40:17.317Z,13.17
2018-05-11T07:42:44.840Z,12.43
2018-05-11T07:45:12.372Z,12.57
2018-05-11T07:47:39.898Z,11.90
2018-05-11T07:50:08.181Z,12.80
2018-05-11T07:52:36.500Z,12.50
2018-05-11T07:55:04.108Z,12.77
2018-05-11T07:57:32.384Z,13.20
2018-05-11T08:00:00.668Z,11.97
2018-05-11T08:02:28.960Z,12.20
2018-05-11T08:04:56.504Z,10.93
2018-05-11T08:07:24.780Z,12.50
2018-05-11T08:09:53.160Z,11.07
2018-05-11T08:12:20.741Z,11.17
2018-05-11T08:14:48.285Z,11.90
2018-05-11T08:17:16.545Z,13.20
2018-05-11T08:19:44.823Z,11.60
2018-05-11T08:22:13.085Z,12.20
2018-05-11T08:24:40.611Z,11.23
2018-05-11T08:27:08.134Z,11.20
2018-05-11T08:29:35.706Z,9.80
2018-05-11T08:32:03.206Z,10.40
2018-05-11T08:34:31.622Z,11.30
2018-05-11T08:36:59.202Z,10.70
2018-05-11T08:39:26.779Z,10.03
2018-05-11T08:41:54.274Z,11.00
2018-05-11T08:44:22.537Z,12.20
2018-05-11T08:46:51.717Z,10.43
2018-05-11T08:49:19.356Z,10.33
2018-05-11T08:51:46.855Z,10.53
2018-05-11T08:54:14.742Z,11.17
2018-05-11T08:56:43.049Z,10.50
2018-05-11T08:59:10.545Z,10.90
2018-05-11T09:01:39.056Z,12.63
2018-05-11T09:04:07.375Z,11.70
2018-05-11T09:06:34.949Z,11.63
2018-05-11T09:09:02.461Z,10.20
2018-05-11T09:11:29.986Z,11.07
2018-05-11T09:13:57.673Z,11.20
2018-05-11T09:16:25.980Z,10.83
2018-05-11T09:18:53.519Z,9.67
2018-05-11T09:21:22.218Z,11.17
2018-05-11T09:23:51.007Z,9.07
2018-05-11T09:26:18.582Z,10.23
2018-05-11T09:28:46.056Z,8.40
2018-05-11T09:31:13.585Z,8.67
2018-05-11T09:33:41.149Z,10.63
2018-05-11T09:36:09.443Z,9.63
2018-05-11T09:38:37.557Z,9.47
2018-05-11T09:41:05.910Z,8.37
2018-05-11T09:43:33.725Z,8.90
2018-05-11T09:46:01.582Z,7.50
2018-05-11T09:48:29.749Z,8.47
2018-05-11T09:50:58.068Z,7.97
2018-05-11T09:53:25.585Z,8.30
2018-05-11T09:55:53.853Z,7.50
2018-05-11T09:58:22.150Z,6.93
2018-05-11T10:00:50.742Z,8.33
2018-05-11T10:03:18.160Z,7.13
2018-05-11T10:05:46.426Z,8.20
2018-05-11T10:08:14.165Z,8.07
2018-05-11T10:10:41.656Z,7.03
2018-05-11T10:13:20.819Z,7.20
2018-05-11T10:15:48.390Z,6.10
2018-05-11T10:18:15.943Z,6.30
2018-05-11T10:20:43.513Z,5.73
2018-05-11T10:23:12.198Z,6.57
2018-05-11T10:25:39.785Z,6.20
2018-05-11T10:28:07.411Z,6.07
2018-05-11T10:30:34.905Z,6.30
2018-05-11T10:33:02.419Z,4.40
2018-05-11T10:35:30.025Z,4.97
2018-05-11T10:37:57.620Z,3.70
2018-05-11T10:40:25.280Z,4.70
2018-05-11T10:42:52.815Z,5.27
2018-05-11T10:45:20.381Z,5.00
2018-05-11T10:47:48.648Z,6.57
2018-05-11T10:50:16.167Z,5.83
2018-05-11T10:52:43.673Z,5.30
2018-05-11T10:55:11.171Z,6.13
2018-05-11T10:57:39.413Z,5.40
2018-05-11T11:00:07.765Z,5.50
2018-05-11T11:02:35.298Z,5.43
2018-05-11T11:05:02.895Z,6.03
2018-05-11T11:07:30.432Z,7.13
2018-05-11T11:09:58.042Z,5.60
2018-05-11T11:12:25.572Z,7.00
2018-05-11T11:14:53.999Z,6.50
2018-05-11T11:17:21.618Z,5.70
2018-05-11T11:19:49.908Z,6.87
2018-05-11T11:22:17.456Z,5.80
2018-05-11T11:24:45.850Z,7.10
2018-05-11T11:27:13.353Z,6.27
2018-05-11T11:29:40.885Z,6.60
2018-05-11T11:32:09.436Z,5.57
2018-05-11T11:34:37.672Z,5.70
2018-05-11T11:37:05.279Z,6.60
2018-05-11T11:39:33.743Z,6.07
2018-05-11T11:42:02.051Z,6.07
2018-05-11T11:44:29.541Z,5.23
2018-05-11T11:46:57.169Z,6.43
2018-05-11T11:49:24.733Z,6.07
2018-05-11T11:51:52.227Z,4.70
2018-05-11T11:54:19.748Z,4.47
2018-05-11T11:56:47.314Z,5.17
2018-05-11T11:59:16.870Z,4.80
2018-05-11T12:01:45.173Z,5.23
2018-05-11T12:04:12.694Z,5.10
2018-05-11T12:06:40.215Z,5.20
2018-05-11T12:09:07.833Z,4.67
2018-05-11T12:11:36.069Z,4.40
2018-05-11T12:14:03.631Z,3.47
2018-05-11T12:16:31.216Z,4.00
2018-05-11T12:18:59.544Z,3.23
2018-05-11T12:21:32.224Z,3.17
2018-05-11T12:23:59.778Z,3.30
2018-05-11T12:26:27.268Z,3.53
2018-05-11T12:28:54.852Z,3.70
2018-05-11T12:31:23.148Z,3.27
2018-05-11T12:33:50.628Z,3.33
2018-05-11T12:36:18.273Z,3.20
2018-05-11T12:38:45.750Z,3.90
2018-05-11T12:41:13.329Z,4.17
2018-05-11T12:43:41.518Z,3.60
2018-05-11T12:46:09.036Z,3.43
2018-05-11T12:48:36.534Z,3.10
2018-05-11T12:51:04.829Z,3.10
2018-05-11T12:53:33.096Z,3.10
2018-05-11T12:56:00.611Z,2.80
2018-05-11T12:58:28.126Z,3.20
2018-05-11T13:00:56.448Z,3.17
2018-05-11T13:03:23.928Z,2.80
2018-05-11T13:05:51.467Z,3.43
2018-05-11T13:08:19.014Z,3.10
2018-05-11T13:10:51.500Z,3.70
2018-05-11T13:13:19.007Z,3.30
2018-05-11T13:15:47.327Z,3.17
2018-05-11T13:18:21.300Z,3.50
2018-05-11T13:20:49.920Z,4.10
2018-05-11T13:23:17.877Z,3.60
2018-05-11T13:25:47.479Z,3.00
2018-05-11T13:28:15.019Z,3.03
2018-05-11T13:30:43.332Z,2.97
2018-05-11T13:33:10.935Z,3.27
2018-05-11T13:35:38.446Z,2.77
2018-05-11T13:38:06.005Z,3.10
2018-05-11T13:40:43.250Z,3.70
2018-05-11T13:43:11.573Z,2.93
2018-05-11T13:45:46.209Z,3.20
2018-05-11T13:48:13.752Z,3.90
2018-05-11T13:50:41.313Z,3.80
2018-05-11T13:53:08.801Z,3.47
2018-05-11T13:55:36.529Z,3.50
2018-05-11T13:58:04.133Z,3.50
2018-05-11T14:00:31.655Z,3.60
2018-05-11T14:02:59.184Z,3.37
2018-05-11T14:05:26.725Z,3.87
2018-05-11T14:07:55.017Z,3.33
2018-05-11T14:10:23.335Z,3.87
2018-05-11T14:12:50.829Z,3.93
2018-05-11T14:15:18.379Z,4.27
2018-05-11T14:17:46.039Z,4.20
2018-05-11T14:20:13.535Z,5.70
2018-05-11T14:22:41.045Z,4.00
2018-05-11T14:25:08.577Z,3.50
2018-05-11T14:27:36.213Z,3.60
2018-05-11T14:30:03.731Z,3.67
2018-05-11T14:32:31.255Z,3.70
2018-05-11T14:34:58.749Z,3.23
2018-05-11T14:37:27.751Z,3.47
2018-05-11T14:39:55.621Z,4.40
2018-05-11T14:42:23.199Z,2.87
2018-05-11T14:44:51.484Z,3.33
2018-05-11T14:47:19.763Z,2.97
2018-05-11T14:49:47.524Z,3.57
2018-05-11T14:52:14.975Z,3.70
2018-05-11T14:54:47.349Z,3.40
2018-05-11T14:57:15.651Z,3.00
2018-05-11T14:59:43.157Z,3.33
2018-05-11T15:02:10.657Z,3.03
2018-05-11T15:04:38.191Z,3.20
2018-05-11T15:07:06.463Z,3.77
2018-05-11T15:09:33.967Z,3.30
2018-05-11T15:12:01.503Z,3.77
2018-05-11T15:14:28.959Z,3.10
2018-05-11T15:16:57.249Z,3.03
2018-05-11T15:19:24.757Z,3.13
2018-05-11T15:21:53.555Z,2.87
2018-05-11T15:24:21.128Z,2.63
2018-05-11T15:26:48.577Z,3.70
2018-05-11T15:29:16.953Z,2.47
2018-05-11T15:31:45.199Z,2.70
2018-05-11T15:34:12.770Z,2.97
2018-05-11T15:36:40.395Z,3.00
2018-05-11T15:39:07.981Z,3.23
2018-05-11T15:41:35.508Z,2.97
2018-05-11T15:44:03.026Z,2.93
2018-05-11T15:46:31.279Z,3.40
2018-05-11T15:48:58.795Z,3.70
2018-05-11T15:51:26.350Z,3.63
2018-05-11T15:53:53.873Z,5.40
2018-05-11T15:56:22.249Z,3.97
2018-05-11T15:58:50.666Z,6.90
2018-05-11T16:01:18.152Z,9.47
2018-05-11T16:03:45.706Z,9.40
2018-05-11T16:06:13.326Z,43.00
2018-05-11T16:08:41.199Z,9.70
2018-05-11T16:11:08.697Z,8.30
2018-05-11T16:13:36.202Z,6.63
2018-05-11T16:16:04.485Z,14.60
2018-05-11T16:18:31.996Z,3.50
2018-05-11T16:20:59.501Z,4.03
2018-05-11T16:23:27.038Z,4.10
2018-05-11T16:25:54.543Z,3.23
2018-05-11T16:28:22.135Z,2.97
2018-05-11T16:30:49.621Z,3.10
2018-05-11T16:33:17.871Z,3.67
2018-05-11T16:35:45.409Z,3.23
2018-05-11T16:38:12.945Z,3.00
2018-05-11T16:40:40.461Z,2.90
2018-05-11T16:43:09.120Z,3.30
2018-05-11T16:45:36.641Z,2.90
2018-05-11T16:48:04.601Z,2.83
2018-05-11T16:50:32.611Z,3.07
2018-05-11T16:53:00.122Z,3.10
2018-05-11T16:55:28.802Z,3.00
2018-05-11T16:57:57.075Z,3.50
2018-05-11T17:00:24.657Z,3.80
2018-05-11T17:02:52.155Z,3.33
2018-05-11T17:05:19.647Z,3.77
2018-05-11T17:07:47.908Z,2.70
2018-05-11T17:10:16.289Z,3.03
2018-05-11T17:12:44.672Z,2.80
2018-05-11T17:15:13.531Z,3.47
2018-05-11T17:17:41.127Z,3.10
2018-05-11T17:20:09.372Z,3.57
2018-05-11T17:22:37.696Z,3.47
2018-05-11T17:25:05.936Z,3.30
2018-05-11T17:27:39.688Z,3.33
2018-05-11T17:30:07.247Z,3.03
2018-05-11T17:32:34.815Z,3.63
2018-05-11T17:35:02.311Z,3.57
2018-05-11T17:37:29.845Z,3.00
2018-05-11T17:39:57.359Z,3.77
2018-05-11T17:42:25.622Z,3.80
2018-05-11T17:44:53.884Z,3.03
2018-05-11T17:47:22.173Z,3.00
2018-05-11T17:49:50.513Z,3.30
2018-05-11T17:52:18.096Z,4.07
2018-05-11T17:54:46.411Z,3.80
2018-05-11T17:57:14.056Z,3.40
2018-05-11T17:59:43.264Z,3.20
2018-05-11T18:02:10.761Z,3.47
2018-05-11T18:04:38.283Z,3.70
2018-05-11T18:07:05.780Z,3.97
2018-05-11T18:09:33.328Z,3.40
2018-05-11T18:12:00.917Z,3.50
2018-05-11T18:14:28.354Z,3.83
2018-05-11T18:16:55.873Z,3.33
2018-05-11T18:19:23.396Z,3.43
2018-05-11T18:21:52.389Z,3.63
2018-05-11T18:24:20.659Z,3.17
2018-05-11T18:26:49.656Z,3.93
2018-05-11T18:29:17.536Z,3.50
2018-05-11T18:31:45.812Z,3.37
2018-05-11T18:34:14.076Z,3.20
2018-05-11T18:36:42.378Z,3.40
2018-05-11T18:39:09.879Z,3.00
2018-05-11T18:41:37.414Z,3.43
2018-05-11T18:44:04.929Z,3.03
2018-05-11T18:46:32.497Z,3.47
2018-05-11T18:49:00.799Z,3.33
2018-05-11T18:51:28.374Z,3.40
2018-05-11T18:53:56.244Z,3.50
2018-05-11T18:56:24.267Z,4.07
2018-05-11T18:58:52.538Z,4.07
2018-05-11T19:01:21.071Z,3.17
2018-05-11T19:03:48.568Z,3.90
2018-05-11T19:06:16.113Z,3.47
2018-05-11T19:08:44.424Z,3.20
2018-05-11T19:11:13.460Z,3.70
2018-05-11T19:13:41.282Z,3.60
2018-05-11T19:16:09.560Z,3.67
2018-05-11T19:18:37.870Z,4.80
2018-05-11T19:21:05.404Z,3.90
2018-05-11T19:23:33.076Z,4.13
2018-05-11T19:26:00.633Z,3.80
2018-05-11T19:28:28.869Z,4.10
2018-05-11T19:30:58.843Z,4.97
2018-05-11T19:33:26.379Z,3.80
2018-05-11T19:35:53.907Z,3.70
2018-05-11T19:38:22.174Z,3.80
2018-05-11T19:40:50.470Z,4.50
2018-05-11T19:43:18.732Z,4.13
2018-05-11T19:45:46.993Z,4.40
2018-05-11T19:48:14.553Z,4.13
2018-05-11T19:50:46.221Z,4.40
2018-05-11T19:53:13.821Z,4.30
2018-05-11T19:55:41.377Z,3.97
2018-05-11T19:58:08.895Z,4.63
2018-05-11T20:00:42.215Z,4.33
2018-05-11T20:03:10.516Z,4.17
2018-05-11T20:05:38.047Z,4.47
2018-05-11T20:08:06.525Z,4.50
2018-05-11T20:10:34.917Z,4.30
2018-05-11T20:13:03.159Z,3.90
2018-05-11T20:15:31.671Z,4.37
2018-05-11T20:17:59.925Z,3.97
2018-05-11T20:20:28.757Z,4.30
2018-05-11T20:22:56.245Z,5.10
2018-05-11T20:25:23.869Z,4.53
2018-05-11T20:27:51.529Z,4.50
2018-05-11T20:30:19.555Z,4.60
2018-05-11T20:32:48.642Z,5.10
2018-05-11T20:35:16.176Z,4.93
2018-05-11T20:37:43.672Z,4.70
2018-05-11T20:40:14.684Z,4.73
2018-05-11T20:42:42.305Z,4.97
2018-05-11T20:45:09.837Z,5.00
2018-05-11T20:47:38.138Z,4.40
2018-05-11T20:50:05.725Z,4.67
2018-05-11T20:52:33.262Z,5.43
2018-05-11T20:55:00.786Z,5.87
2018-05-11T20:57:29.051Z,5.30
2018-05-11T20:59:56.529Z,5.87
2018-05-11T21:02:24.827Z,5.17
2018-05-11T21:04:52.381Z,5.37
2018-05-11T21:07:20.721Z,5.43
2018-05-11T21:09:48.235Z,5.23
2018-05-11T21:12:15.761Z,5.50
2018-05-11T21:14:44.088Z,4.80
2018-05-11T21:17:11.672Z,5.03
2018-05-11T21:19:39.226Z,5.10
2018-05-11T21:22:06.755Z,5.30
2018-05-11T21:24:34.287Z,5.33
2018-05-11T21:27:01.885Z,6.07
2018-05-11T21:29:29.409Z,5.70
2018-05-11T21:31:56.961Z,5.33
2018-05-11T21:34:27.231Z,5.83
2018-05-11T21:36:56.465Z,5.00
2018-05-11T21:39:24.797Z,5.93
2018-05-11T21:41:52.294Z,5.83
2018-05-11T21:44:20.633Z,5.10
2018-05-11T21:46:48.136Z,5.93
2018-05-11T21:49:16.399Z,5.30
2018-05-11T21:51:44.756Z,6.17
2018-05-11T21:54:12.245Z,5.40
2018-05-11T21:56:40.943Z,5.57
2018-05-11T21:59:09.304Z,5.87
2018-05-11T22:01:37.693Z,5.67
2018-05-11T22:04:06.027Z,5.00
2018-05-11T22:06:33.516Z,5.03
2018-05-11T22:09:01.961Z,5.60
2018-05-11T22:11:29.452Z,5.60
2018-05-11T22:13:58.654Z,5.23
2018-05-11T22:16:26.950Z,6.73
2018-05-11T22:18:54.501Z,5.53
2018-05-11T22:21:22.764Z,5.63
2018-05-11T22:23:51.048Z,5.67
2018-05-11T22:26:18.543Z,6.40
2018-05-11T22:28:46.084Z,6.10
2018-05-11T22:31:13.616Z,6.00
2018-05-11T22:33:41.145Z,6.60
2018-05-11T22:36:08.672Z,6.43
2018-05-11T22:38:36.148Z,6.30
2018-05-11T22:41:03.690Z,7.23
2018-05-11T22:43:31.171Z,6.57
2018-05-11T22:45:58.788Z,6.63
2018-05-11T22:48:26.412Z,6.53
2018-05-11T22:50:54.686Z,6.17
2018-05-11T22:53:22.253Z,7.00
2018-05-11T22:55:50.670Z,6.77
2018-05-11T22:58:18.193Z,6.50
2018-05-11T23:00:46.548Z,6.43
2018-05-11T23:03:14.169Z,7.03
2018-05-11T23:05:41.902Z,6.93
2018-05-11T23:08:09.421Z,6.90
2018-05-11T23:10:36.981Z,6.67
2018-05-11T23:13:04.523Z,7.50
2018-05-11T23:15:32.083Z,7.13
2018-05-11T23:17:59.588Z,7.03
2018-05-11T23:20:27.859Z,6.10
2018-05-11T23:22:56.133Z,6.80
2018-05-11T23:25:24.414Z,6.87
2018-05-11T23:27:53.570Z,6.80
2018-05-11T23:30:21.061Z,7.50
2018-05-11T23:32:49.336Z,7.20
2018-05-11T23:35:24.428Z,7.33
2018-05-11T23:37:52.041Z,7.20
2018-05-11T23:40:20.313Z,6.83
2018-05-11T23:42:47.823Z,7.23
2018-05-11T23:45:15.501Z,6.57
2018-05-11T23:47:43.000Z,7.13
2018-05-11T23:50:10.549Z,6.90
2018-05-11T23:52:38.836Z,7.77
2018-05-11T23:55:06.338Z,9.30
2018-05-11T23:57:33.941Z,6.70
